createdAt,value
2023-01-23T00:04:19.578Z,42.78
2023-01-23T00:09:24.834Z,51.95
2023-01-23T00:14:28.524Z,49.00
2023-01-23T00:19:31.882Z,52.30
2023-01-23T00:24:36.641Z,44.83
2023-01-23T00:29:40.031Z,44.03
2023-01-23T00:34:43.535Z,48.33
2023-01-23T00:39:50.922Z,54.10
2023-01-23T00:44:54.333Z,47.75
2023-01-23T00:49:59.145Z,49.10
2023-01-23T00:55:03.920Z,54.08
2023-01-23T01:00:08.322Z,55.70
2023-01-23T01:05:11.828Z,60.38
2023-01-23T01:10:18.726Z,51.88
2023-01-23T01:15:22.252Z,51.78
2023-01-23T01:20:26.931Z,48.55
2023-01-23T01:25:31.831Z,50.97
2023-01-23T01:30:36.789Z,56.22
2023-01-23T01:35:41.660Z,52.60
2023-01-23T01:40:46.451Z,52.45
2023-01-23T01:46:09.586Z,52.90
2023-01-23T01:51:19.578Z,49.85
2023-01-23T01:56:24.733Z,51.08
2023-01-23T02:01:28.534Z,53.78
2023-01-23T02:06:32.254Z,48.35
2023-01-23T02:11:37.540Z,55.72
2023-01-23T02:16:46.457Z,59.17
2023-01-23T02:21:53.765Z,61.67
2023-01-23T02:26:58.596Z,56.85
2023-01-23T02:32:02.028Z,59.95
2023-01-23T02:37:07.597Z,60.53
2023-01-23T02:42:13.317Z,57.05
2023-01-23T02:47:16.932Z,63.88
2023-01-23T02:52:20.331Z,62.28
2023-01-23T02:57:25.133Z,61.33
2023-01-23T03:02:28.792Z,58.80
2023-01-23T03:07:32.320Z,57.53
2023-01-23T03:12:39.709Z,62.83
2023-01-23T03:17:43.140Z,62.13
2023-01-23T03:22:46.946Z,60.60
2023-01-23T03:27:51.724Z,67.82
2023-01-23T03:32:55.213Z,58.08
2023-01-23T03:37:58.631Z,57.25
2023-01-23T03:43:03.905Z,66.60
2023-01-23T03:48:07.703Z,60.55
2023-01-23T03:53:11.379Z,61.38
2023-01-23T03:58:16.464Z,61.42
2023-01-23T04:03:19.830Z,70.50
2023-01-23T04:08:23.757Z,59.88
2023-01-23T04:13:29.116Z,69.65
2023-01-23T04:18:32.616Z,60.83
2023-01-23T04:23:37.038Z,65.10
2023-01-23T04:28:42.217Z,64.30
2023-01-23T04:33:45.675Z,61.95
2023-01-23T04:38:49.168Z,63.65
2023-01-23T04:43:53.925Z,59.28
2023-01-23T04:48:57.305Z,66.22
2023-01-23T04:54:00.736Z,67.80
2023-01-23T04:59:05.586Z,64.50
2023-01-23T05:04:09.209Z,67.63
2023-01-23T05:09:13.578Z,58.95
2023-01-23T05:14:19.757Z,60.35
2023-01-23T05:19:23.371Z,59.97
2023-01-23T05:24:26.807Z,58.38
2023-01-23T05:29:31.629Z,59.00
2023-01-23T05:34:35.076Z,58.83
2023-01-23T05:39:38.733Z,60.03
2023-01-23T05:44:43.440Z,56.90
2023-01-23T05:49:46.976Z,64.97
2023-01-23T05:54:51.067Z,56.55
2023-01-23T05:59:55.930Z,58.33
2023-01-23T06:04:59.300Z,58.65
2023-01-23T06:10:02.693Z,59.13
2023-01-23T06:15:09.410Z,62.92
2023-01-23T06:20:13.672Z,66.88
2023-01-23T06:25:18.394Z,57.33
2023-01-23T06:30:23.381Z,59.47
2023-01-23T06:35:26.747Z,58.50
2023-01-23T06:40:30.096Z,56.03
2023-01-23T06:45:35.065Z,59.03
2023-01-23T06:50:39.579Z,52.67
2023-01-23T06:55:43.144Z,59.55
2023-01-23T07:00:48.392Z,71.28
2023-01-23T07:05:52.279Z,81.93
2023-01-23T07:10:55.719Z,92.20
2023-01-23T07:16:00.927Z,62.58
2023-01-23T07:21:07.319Z,57.10
2023-01-23T07:26:12.244Z,58.55
2023-01-23T07:31:17.507Z,54.88
2023-01-23T07:36:21.228Z,56.25
2023-01-23T07:41:24.542Z,59.33
2023-01-23T07:46:29.351Z,54.92
2023-01-23T07:51:32.778Z,58.22
2023-01-23T07:56:36.168Z,47.05
2023-01-23T08:01:40.970Z,49.88
2023-01-23T08:06:44.436Z,45.92
2023-01-23T08:11:47.818Z,45.90
2023-01-23T08:16:53.549Z,46.78
2023-01-23T08:21:57.002Z,46.60
2023-01-23T08:27:00.436Z,49.15
2023-01-23T08:32:05.768Z,50.88
2023-01-23T08:37:09.181Z,43.83
2023-01-23T08:42:12.629Z,46.38
2023-01-23T08:47:17.961Z,50.83
2023-01-23T08:52:21.411Z,49.75
2023-01-23T08:57:25.149Z,47.20
2023-01-23T09:02:29.874Z,47.28
2023-01-23T09:07:36.385Z,44.55
2023-01-23T09:12:41.689Z,50.55
2023-01-23T09:17:46.566Z,44.25
2023-01-23T09:22:49.995Z,56.50
2023-01-23T09:27:53.353Z,56.13
2023-01-23T09:32:58.168Z,45.25
2023-01-23T09:38:01.762Z,56.42
2023-01-23T09:43:14.178Z,61.47
2023-01-23T09:48:25.981Z,52.30
2023-01-23T09:53:36.154Z,54.38
2023-01-23T09:58:44.971Z,50.88
2023-01-23T10:03:50.027Z,53.58
2023-01-23T10:09:21.309Z,49.13
2023-01-23T10:15:06.027Z,51.58
2023-01-23T10:20:30.618Z,48.90
2023-01-23T10:25:41.028Z,53.47
2023-01-23T10:30:50.532Z,50.85
2023-01-23T10:35:59.555Z,49.00
2023-01-23T10:41:14.906Z,44.17
2023-01-23T10:46:19.733Z,52.22
2023-01-23T10:51:50.722Z,55.72
2023-01-23T10:56:58.614Z,50.47
2023-01-23T11:02:19.171Z,49.10
2023-01-23T11:07:26.156Z,49.85
2023-01-23T11:12:31.914Z,55.58
2023-01-23T11:17:35.481Z,57.25
2023-01-23T11:22:42.538Z,51.42
2023-01-23T11:27:58.097Z,53.63
2023-01-23T11:33:13.227Z,57.42
2023-01-23T11:38:30.616Z,47.35
2023-01-23T11:43:34.553Z,56.35
2023-01-23T11:48:55.052Z,53.78
2023-01-23T11:54:17.219Z,51.45
2023-01-23T11:59:43.863Z,56.47
2023-01-23T12:05:02.856Z,58.72
2023-01-23T12:10:19.819Z,57.35
2023-01-23T12:15:33.382Z,53.70
2023-01-23T12:20:51.567Z,53.10
2023-01-23T12:26:04.238Z,57.30
2023-01-23T12:31:29.291Z,52.03
2023-01-23T12:37:08.504Z,51.58
2023-01-23T12:42:21.593Z,62.28
2023-01-23T12:47:28.896Z,55.33
2023-01-23T12:52:39.342Z,59.38
2023-01-23T12:58:00.216Z,60.00
2023-01-23T13:03:46.368Z,62.42
2023-01-23T13:09:12.051Z,65.25
2023-01-23T13:14:31.489Z,62.05
2023-01-23T13:20:00.745Z,66.60
2023-01-23T13:25:17.656Z,57.85
2023-01-23T13:30:42.481Z,65.22
2023-01-23T13:35:56.125Z,61.78
2023-01-23T13:41:29.891Z,61.88
2023-01-23T14:25:19.287Z,64.38
2023-01-23T14:30:27.473Z,57.33
2023-01-23T14:35:33.786Z,57.28
2023-01-23T14:40:50.213Z,64.85
2023-01-23T14:46:00.952Z,62.08
2023-01-23T14:51:10.227Z,65.80
2023-01-23T14:56:13.911Z,66.07
2023-01-23T15:01:17.535Z,59.42
2023-01-23T15:06:24.019Z,67.03
2023-01-23T15:11:28.877Z,58.85
2023-01-23T15:16:36.147Z,58.53
2023-01-23T15:21:42.945Z,66.68
2023-01-23T15:26:57.619Z,67.35
2023-01-23T15:32:02.734Z,68.20
2023-01-23T15:37:22.771Z,76.18
2023-01-23T15:42:29.477Z,71.88
2023-01-23T15:47:33.843Z,69.38
2023-01-23T15:52:49.436Z,72.00
2023-01-23T15:57:53.520Z,77.43
2023-01-23T16:02:58.319Z,75.18
2023-01-23T16:08:05.819Z,73.15
2023-01-23T16:13:13.608Z,77.85
2023-01-23T16:18:17.125Z,76.22
2023-01-23T16:23:25.871Z,78.72
2023-01-23T16:28:30.229Z,83.05
2023-01-23T16:33:34.022Z,90.18
2023-01-23T16:38:38.842Z,80.95
2023-01-23T16:43:42.447Z,77.82
2023-01-23T16:48:45.850Z,76.30
2023-01-23T16:53:55.388Z,73.68
2023-01-23T16:58:59.339Z,77.20
2023-01-23T17:04:04.978Z,74.45
2023-01-23T17:09:12.111Z,77.57
2023-01-23T17:14:19.296Z,81.07
2023-01-23T17:19:29.965Z,83.50
2023-01-23T17:24:35.241Z,67.90
2023-01-23T17:29:38.774Z,73.43
2023-01-23T17:34:49.918Z,75.45
2023-01-23T17:39:55.702Z,82.20
2023-01-23T17:44:59.191Z,89.63
2023-01-23T17:50:03.472Z,74.22
2023-01-23T17:55:14.548Z,77.40
2023-01-23T18:00:20.566Z,76.97
2023-01-23T18:05:25.738Z,74.40
2023-01-23T18:10:30.980Z,75.45
2023-01-23T18:15:41.342Z,80.47
2023-01-23T18:20:46.176Z,78.45
2023-01-23T18:26:01.582Z,72.40
2023-01-23T18:31:10.430Z,74.55
2023-01-23T18:36:26.430Z,74.75
2023-01-23T18:41:31.978Z,77.35
2023-01-23T18:46:36.216Z,79.35
2023-01-23T18:51:46.577Z,70.40
2023-01-23T18:57:09.237Z,73.00
2023-01-23T19:02:21.691Z,68.68
2023-01-23T19:07:25.604Z,76.33
2023-01-23T19:12:38.850Z,66.70
2023-01-23T19:17:46.838Z,73.70
2023-01-23T19:23:01.969Z,64.60
2023-01-23T19:28:09.914Z,77.53
2023-01-23T19:33:16.941Z,90.18
2023-01-23T19:38:22.618Z,77.05
2023-01-23T19:43:28.934Z,68.03
2023-01-23T19:48:32.352Z,74.28
2023-01-23T19:53:35.711Z,76.13
2023-01-23T19:58:41.447Z,71.13
2023-01-23T20:03:44.809Z,70.82
2023-01-23T20:08:48.335Z,71.15
2023-01-23T20:13:53.516Z,70.30
2023-01-23T20:18:56.976Z,74.22
2023-01-23T20:24:00.749Z,65.78
2023-01-23T20:29:06.644Z,69.65
2023-01-23T20:34:10.093Z,77.78
2023-01-23T20:39:14.170Z,76.35
2023-01-23T20:44:18.866Z,80.00
2023-01-23T20:49:23.427Z,68.28
2023-01-23T20:54:27.105Z,72.25
2023-01-23T20:59:32.525Z,70.40
2023-01-23T21:04:38.380Z,67.70
2023-01-23T21:09:41.914Z,69.13
2023-01-23T21:14:46.766Z,65.18
2023-01-23T21:19:50.360Z,61.75
2023-01-23T21:24:53.780Z,61.28
2023-01-23T21:29:58.627Z,62.90
2023-01-23T21:35:02.935Z,61.40
2023-01-23T21:40:08.586Z,63.65
2023-01-23T21:45:13.549Z,65.20
2023-01-23T21:50:18.317Z,61.80
2023-01-23T21:55:21.949Z,66.45
2023-01-23T22:00:52.739Z,59.28
2023-01-23T22:05:58.818Z,65.90
2023-01-23T22:11:02.212Z,63.55
2023-01-23T22:16:07.976Z,66.00
2023-01-23T22:21:11.852Z,54.55
2023-01-23T22:26:15.541Z,62.67
2023-01-23T22:31:20.391Z,59.63
2023-01-23T22:36:23.813Z,59.03
2023-01-23T22:41:29.072Z,63.10
2023-01-23T22:46:33.902Z,57.85
2023-01-23T22:51:37.660Z,62.63
2023-01-23T22:56:41.341Z,60.47
2023-01-23T23:01:46.067Z,64.35
2023-01-23T23:06:49.438Z,65.43
2023-01-23T23:11:52.872Z,69.00
2023-01-23T23:16:57.981Z,71.93
2023-01-23T23:22:01.376Z,58.35
2023-01-23T23:27:04.949Z,58.95
2023-01-23T23:32:10.014Z,68.60
2023-01-23T23:37:13.607Z,63.05
2023-01-23T23:42:17.431Z,60.53
2023-01-23T23:47:22.143Z,58.13
2023-01-23T23:52:25.553Z,63.20
2023-01-23T23:57:28.911Z,64.72
